Time;durP1;ratioP1;P1;durP2;ratioP2;P2;SDS_P1;SDS_P2;PMS_P1;PMS_P2;Temp;Humidity;BMP_temperature;BMP_pressure;BME280_temperature;BME280_humidity;BME280_pressure;Samples;Min_cycle;Max_cycle;Signal;HPM_P1;HPM_P2
2022/08/23 00:01:28;;;;;;;9.57;5.18;;;;;;;;;;5000215;28;20491;-92
2022/08/23 00:03:55;;;;;;;10.05;4.80;;;;;;;;;;5014946;28;20098;-91
2022/08/23 00:06:22;;;;;;;6.80;5.10;;;;;;;;;;5004705;28;20053;-93
2022/08/23 00:08:48;;;;;;;5.65;5.00;;;;;;;;;;5022701;28;20056;-92
2022/08/23 00:11:30;;;;;;;7.57;5.57;;;;;;;;;;5002924;28;20053;-91
2022/08/23 00:13:57;;;;;;;9.45;5.18;;;;;;;;;;4998939;28;20493;-92
2022/08/23 00:16:23;;;;;;;9.32;5.38;;;;;;;;;;5007342;28;20107;-92
2022/08/23 00:18:49;;;;;;;9.43;5.72;;;;;;;;;;5009596;28;20054;-91
2022/08/23 00:21:15;;;;;;;7.40;5.80;;;;;;;;;;5007748;28;20091;-93
2022/08/23 00:23:41;;;;;;;7.63;5.28;;;;;;;;;;5006528;28;20506;-91
2022/08/23 00:26:07;;;;;;;9.98;5.88;;;;;;;;;;5026796;28;20044;-91
2022/08/23 00:28:33;;;;;;;16.73;6.93;;;;;;;;;;5004876;28;20049;-90
2022/08/23 00:30:59;;;;;;;16.40;7.18;;;;;;;;;;5024286;28;20504;-91
2022/08/23 00:33:25;;;;;;;10.55;5.97;;;;;;;;;;5025893;28;20046;-92
2022/08/23 00:35:52;;;;;;;8.30;5.40;;;;;;;;;;5029609;28;20042;-91
2022/08/23 00:38:18;;;;;;;6.90;5.30;;;;;;;;;;5027241;28;20405;-90
2022/08/23 00:40:46;;;;;;;7.70;5.72;;;;;;;;;;5028872;28;20401;-92
2022/08/23 00:49:03;;;;;;;10.57;6.00;;;;;;;;;;5023290;28;20083;-90
2022/08/23 00:51:37;;;;;;;6.00;5.05;;;;;;;;;;5025519;28;20052;-91
2022/08/23 00:54:04;;;;;;;8.23;5.47;;;;;;;;;;5009474;28;20050;-91
2022/08/23 00:56:32;;;;;;;8.27;5.45;;;;;;;;;;5001889;28;20183;-91
2022/08/23 00:58:58;;;;;;;7.40;5.32;;;;;;;;;;5005225;28;20084;-91
2022/08/23 01:01:24;;;;;;;10.70;5.68;;;;;;;;;;5002322;28;20143;-91
2022/08/23 01:03:52;;;;;;;7.20;5.28;;;;;;;;;;5005098;28;20781;-90
2022/08/23 01:06:21;;;;;;;9.80;5.50;;;;;;;;;;5026572;28;20042;-94
2022/08/23 01:08:53;;;;;;;7.70;4.90;;;;;;;;;;5020945;28;20041;-92
2022/08/23 01:11:32;;;;;;;8.33;5.17;;;;;;;;;;5008799;28;20573;-92
2022/08/23 01:14:16;;;;;;;6.50;5.00;;;;;;;;;;5020132;28;20045;-92
2022/08/23 01:16:48;;;;;;;8.70;5.57;;;;;;;;;;5007626;28;20056;-92
2022/08/23 01:19:19;;;;;;;7.65;5.30;;;;;;;;;;5008966;28;20521;-93
2022/08/23 01:21:49;;;;;;;9.00;5.53;;;;;;;;;;5025653;28;20049;-93
2022/08/23 01:24:16;;;;;;;6.10;4.82;;;;;;;;;;4993421;28;20049;-93
2022/08/23 01:26:42;;;;;;;8.68;5.68;;;;;;;;;;5025105;28;20500;-91
2022/08/23 01:29:09;;;;;;;7.50;5.50;;;;;;;;;;5009505;28;20048;-92
2022/08/23 01:31:35;;;;;;;8.80;5.13;;;;;;;;;;5026112;28;20421;-93
2022/08/23 01:34:06;;;;;;;6.85;5.47;;;;;;;;;;5024555;28;20107;-92
2022/08/23 01:36:34;;;;;;;8.95;5.40;;;;;;;;;;5026911;28;20090;-92
2022/08/23 01:39:00;;;;;;;7.35;5.40;;;;;;;;;;5024833;28;20056;-92
2022/08/23 01:41:26;;;;;;;7.32;5.30;;;;;;;;;;5003424;28;20046;-93
2022/08/23 01:43:52;;;;;;;8.70;5.68;;;;;;;;;;5029389;28;20172;-92
2022/08/23 01:46:19;;;;;;;7.80;5.63;;;;;;;;;;5022150;28;20061;-91
2022/08/23 01:48:46;;;;;;;9.65;6.03;;;;;;;;;;5005220;28;20054;-92
2022/08/23 01:51:13;;;;;;;6.28;4.93;;;;;;;;;;5027211;28;20393;-91
2022/08/23 01:53:39;;;;;;;7.25;5.25;;;;;;;;;;5026682;28;20650;-91
2022/08/23 01:56:07;;;;;;;8.80;5.65;;;;;;;;;;5006779;28;20512;-92
2022/08/23 01:58:33;;;;;;;8.70;5.50;;;;;;;;;;5025421;28;20103;-92
2022/08/23 02:01:00;;;;;;;7.53;5.63;;;;;;;;;;5007191;28;20041;-91
2022/08/23 02:03:27;;;;;;;9.30;5.80;;;;;;;;;;5007456;28;20736;-94
2022/08/23 02:05:54;;;;;;;7.65;6.03;;;;;;;;;;5029185;28;20119;-94
2022/08/23 02:11:10;;;;;;;6.47;5.75;;;;;;;;;;5009018;28;20050;-94
2022/08/23 02:13:36;;;;;;;6.85;6.10;;;;;;;;;;5026372;28;20037;-93
2022/08/23 02:16:02;;;;;;;7.05;5.80;;;;;;;;;;5007909;28;20109;-95
2022/08/23 02:18:29;;;;;;;9.98;5.97;;;;;;;;;;5010006;28;20057;-94
2022/08/23 02:20:55;;;;;;;7.97;6.35;;;;;;;;;;5027684;28;20049;-85
2022/08/23 02:23:21;;;;;;;8.05;6.07;;;;;;;;;;5029632;28;20069;-92
2022/08/23 02:25:49;;;;;;;8.18;5.72;;;;;;;;;;5051193;28;20021;-92
2022/08/23 02:28:15;;;;;;;8.00;5.90;;;;;;;;;;5007906;28;20150;-93
2022/08/23 02:30:43;;;;;;;8.75;6.22;;;;;;;;;;5005223;28;20116;-91
2022/08/23 02:33:09;;;;;;;9.02;6.78;;;;;;;;;;5005158;28;20049;-93
2022/08/23 02:35:36;;;;;;;9.13;6.63;;;;;;;;;;5025907;28;20037;-94
2022/08/23 02:38:03;;;;;;;6.93;6.20;;;;;;;;;;5008084;28;20046;-92
2022/08/23 02:40:29;;;;;;;8.23;6.75;;;;;;;;;;5023800;28;20034;-94
2022/08/23 02:42:56;;;;;;;8.80;6.90;;;;;;;;;;5011277;28;20041;-94
2022/08/23 02:45:22;;;;;;;9.73;6.75;;;;;;;;;;5022711;28;20042;-93
2022/08/23 02:47:48;;;;;;;11.20;6.80;;;;;;;;;;5005521;28;20145;-93
2022/08/23 02:50:14;;;;;;;8.98;6.95;;;;;;;;;;5019669;28;20364;-92
2022/08/23 02:52:40;;;;;;;10.40;7.13;;;;;;;;;;5026281;28;20045;-92
2022/08/23 02:55:07;;;;;;;9.95;7.30;;;;;;;;;;5008268;28;20037;-91
2022/08/23 02:57:33;;;;;;;12.02;7.25;;;;;;;;;;5006939;28;20054;-91
2022/08/23 02:59:59;;;;;;;10.95;7.55;;;;;;;;;;4999409;28;20057;-92
2022/08/23 03:02:25;;;;;;;10.15;6.82;;;;;;;;;;5003366;28;20055;-93
2022/08/23 03:04:51;;;;;;;7.93;7.13;;;;;;;;;;5007253;28;20037;-92
2022/08/23 03:07:18;;;;;;;10.05;7.70;;;;;;;;;;5004404;28;20440;-94
2022/08/23 03:09:44;;;;;;;8.95;7.65;;;;;;;;;;5005733;28;20045;-93
2022/08/23 03:12:10;;;;;;;9.10;7.60;;;;;;;;;;5006369;28;20088;-94
2022/08/23 03:14:39;;;;;;;9.77;7.45;;;;;;;;;;5005547;28;20045;-89
2022/08/23 03:17:06;;;;;;;8.73;7.82;;;;;;;;;;5007310;28;20507;-91
2022/08/23 03:19:32;;;;;;;10.15;7.35;;;;;;;;;;5026113;28;20049;-92
2022/08/23 03:21:59;;;;;;;11.70;8.05;;;;;;;;;;5004346;28;20049;-90
2022/08/23 03:24:25;;;;;;;8.85;7.72;;;;;;;;;;5000956;28;20589;-92
2022/08/23 03:26:51;;;;;;;9.40;7.68;;;;;;;;;;5002847;28;20096;-89
2022/08/23 03:29:18;;;;;;;11.75;7.40;;;;;;;;;;5026591;28;20044;-90
2022/08/23 03:31:44;;;;;;;10.30;8.45;;;;;;;;;;5015263;28;20064;-90
2022/08/23 03:34:11;;;;;;;10.80;7.82;;;;;;;;;;5034641;28;20041;-89
2022/08/23 03:36:37;;;;;;;10.88;8.57;;;;;;;;;;5007115;28;20042;-92
2022/08/23 03:39:04;;;;;;;11.25;8.10;;;;;;;;;;5008499;28;20139;-91
2022/08/23 03:41:30;;;;;;;10.27;7.60;;;;;;;;;;5010779;28;20052;-91
2022/08/23 03:43:56;;;;;;;10.23;8.38;;;;;;;;;;5031815;28;20400;-89
2022/08/23 03:46:22;;;;;;;9.32;7.78;;;;;;;;;;5011045;28;20052;-90
2022/08/23 03:48:49;;;;;;;10.18;8.27;;;;;;;;;;5013887;28;20134;-90
2022/08/23 03:51:16;;;;;;;9.93;8.18;;;;;;;;;;5006265;28;20046;-91
2022/08/23 03:53:42;;;;;;;10.70;8.55;;;;;;;;;;5025910;28;20387;-89
2022/08/23 03:56:08;;;;;;;9.48;8.48;;;;;;;;;;5025668;28;20509;-88
2022/08/23 03:58:34;;;;;;;11.32;8.30;;;;;;;;;;5011808;28;20421;-90
2022/08/23 04:01:00;;;;;;;11.30;8.63;;;;;;;;;;5025604;28;20029;-89
2022/08/23 04:03:26;;;;;;;9.63;8.15;;;;;;;;;;5026232;28;20185;-90
2022/08/23 04:05:52;;;;;;;10.23;8.75;;;;;;;;;;5024747;28;20457;-91
2022/08/23 04:08:18;;;;;;;12.05;8.40;;;;;;;;;;5010474;28;20091;-90
2022/08/23 04:10:44;;;;;;;9.40;8.13;;;;;;;;;;5009023;28;20132;-91
2022/08/23 04:13:10;;;;;;;11.95;9.00;;;;;;;;;;5026093;28;20046;-90
2022/08/23 04:15:36;;;;;;;12.20;9.20;;;;;;;;;;5005738;28;20053;-90
2022/08/23 04:18:03;;;;;;;11.55;9.50;;;;;;;;;;5006465;28;20046;-92
2022/08/23 04:20:29;;;;;;;10.27;9.05;;;;;;;;;;5011301;28;20482;-91
2022/08/23 04:22:55;;;;;;;10.85;8.68;;;;;;;;;;5043471;28;20049;-91
2022/08/23 04:25:21;;;;;;;9.43;8.40;;;;;;;;;;5008418;28;20474;-90
2022/08/23 04:27:47;;;;;;;10.88;8.75;;;;;;;;;;5015261;28;20163;-83
2022/08/23 04:30:13;;;;;;;10.55;8.88;;;;;;;;;;5005321;28;20045;-91
2022/08/23 04:32:40;;;;;;;9.50;8.63;;;;;;;;;;5001881;28;20133;-89
2022/08/23 04:35:06;;;;;;;10.90;9.07;;;;;;;;;;5023059;28;20607;-91
2022/08/23 04:37:34;;;;;;;12.57;8.68;;;;;;;;;;5021200;28;20046;-91
2022/08/23 04:42:44;;;;;;;12.30;9.32;;;;;;;;;;5021103;28;20068;-90
2022/08/23 04:45:10;;;;;;;11.25;9.18;;;;;;;;;;5019468;28;20057;-89
2022/08/23 04:47:40;;;;;;;10.05;9.05;;;;;;;;;;4989311;28;20069;-89
2022/08/23 04:50:07;;;;;;;14.55;9.63;;;;;;;;;;4986648;28;20045;-91
2022/08/23 04:52:33;;;;;;;10.98;8.73;;;;;;;;;;4998586;28;20053;-90
2022/08/23 04:54:59;;;;;;;10.40;9.40;;;;;;;;;;5000261;28;20046;-88
2022/08/23 04:57:25;;;;;;;10.50;9.45;;;;;;;;;;5000866;28;20049;-90
2022/08/23 04:59:51;;;;;;;11.88;9.75;;;;;;;;;;4986446;28;20042;-89
2022/08/23 05:02:19;;;;;;;12.27;9.38;;;;;;;;;;4994470;28;20125;-90
2022/08/23 05:04:45;;;;;;;13.43;9.38;;;;;;;;;;4992236;28;20148;-91
2022/08/23 05:07:11;;;;;;;11.07;9.90;;;;;;;;;;4999528;28;20050;-90
2022/08/23 05:09:38;;;;;;;10.75;9.75;;;;;;;;;;4984142;28;20617;-89
2022/08/23 05:12:04;;;;;;;11.52;10.30;;;;;;;;;;5009573;28;20085;-90
2022/08/23 05:14:30;;;;;;;12.68;9.68;;;;;;;;;;4990240;28;20133;-93
2022/08/23 05:16:56;;;;;;;10.85;9.60;;;;;;;;;;5007322;28;20553;-93
2022/08/23 05:19:22;;;;;;;11.90;10.20;;;;;;;;;;4990061;28;20401;-95
2022/08/23 05:21:48;;;;;;;11.98;10.20;;;;;;;;;;4985245;28;20441;-91
2022/08/23 05:24:14;;;;;;;12.48;10.02;;;;;;;;;;5004465;28;20095;-91
2022/08/23 05:26:40;;;;;;;10.57;9.50;;;;;;;;;;5003454;28;20045;-88
2022/08/23 05:29:06;;;;;;;11.68;9.70;;;;;;;;;;4993537;28;20038;-90
2022/08/23 05:31:32;;;;;;;10.73;9.73;;;;;;;;;;5008075;28;20444;-91
2022/08/23 05:33:59;;;;;;;10.50;9.15;;;;;;;;;;5009401;28;20046;-89
2022/08/23 05:36:25;;;;;;;10.43;9.30;;;;;;;;;;5009996;28;20509;-91
2022/08/23 05:38:52;;;;;;;10.60;9.48;;;;;;;;;;5010057;28;20038;-91
2022/08/23 05:41:18;;;;;;;10.73;9.60;;;;;;;;;;5000627;28;20057;-91
2022/08/23 05:43:46;;;;;;;12.23;9.65;;;;;;;;;;4999376;28;20053;-90
2022/08/23 05:46:13;;;;;;;10.70;9.55;;;;;;;;;;5005096;28;20038;-89
2022/08/23 05:48:40;;;;;;;12.13;10.80;;;;;;;;;;5032827;28;20061;-88
2022/08/23 05:51:07;;;;;;;11.57;9.88;;;;;;;;;;5030197;28;20111;-90
2022/08/23 05:53:33;;;;;;;11.75;9.60;;;;;;;;;;5035437;28;20506;-92
2022/08/23 05:56:07;;;;;;;11.02;9.95;;;;;;;;;;5015522;28;20060;-82
2022/08/23 05:58:33;;;;;;;11.10;10.05;;;;;;;;;;5054279;28;20040;-87
2022/08/23 06:00:59;;;;;;;11.52;10.40;;;;;;;;;;5047603;28;20065;-90
2022/08/23 06:03:25;;;;;;;13.23;10.75;;;;;;;;;;5012352;28;20401;-90
2022/08/23 06:05:56;;;;;;;11.27;10.02;;;;;;;;;;5027424;28;20080;-92
2022/08/23 06:08:22;;;;;;;11.88;10.63;;;;;;;;;;5009517;28;20049;-91
2022/08/23 06:10:48;;;;;;;11.75;10.57;;;;;;;;;;5029742;28;20113;-89
2022/08/23 06:13:14;;;;;;;11.77;10.57;;;;;;;;;;5008819;28;20049;-88
2022/08/23 06:15:44;;;;;;;11.10;10.07;;;;;;;;;;5030236;28;20496;-89
2022/08/23 06:18:12;;;;;;;13.45;10.65;;;;;;;;;;5012415;28;20052;-91
2022/08/23 06:20:38;;;;;;;11.63;10.48;;;;;;;;;;5032421;28;20059;-89
2022/08/23 06:23:05;;;;;;;11.85;10.75;;;;;;;;;;5010154;28;20053;-90
2022/08/23 06:25:35;;;;;;;12.45;11.07;;;;;;;;;;5030561;28;20119;-90
2022/08/23 06:28:01;;;;;;;14.02;11.52;;;;;;;;;;5028747;28;20034;-90
2022/08/23 06:30:27;;;;;;;13.73;10.18;;;;;;;;;;5012123;28;20057;-91
2022/08/23 06:32:53;;;;;;;13.73;11.32;;;;;;;;;;5029192;28;20045;-88
2022/08/23 06:35:19;;;;;;;12.02;10.82;;;;;;;;;;5031875;28;20045;-90
2022/08/23 06:37:45;;;;;;;13.00;11.68;;;;;;;;;;5009940;28;20045;-92
2022/08/23 06:40:11;;;;;;;12.00;10.88;;;;;;;;;;4999848;28;20104;-92
2022/08/23 06:42:37;;;;;;;11.85;10.75;;;;;;;;;;5022250;28;20370;-89
2022/08/23 06:45:04;;;;;;;13.32;11.98;;;;;;;;;;5011334;28;20053;-90
2022/08/23 06:47:30;;;;;;;11.77;10.68;;;;;;;;;;5013937;28;20048;-89
2022/08/23 06:49:56;;;;;;;12.70;11.40;;;;;;;;;;5027208;28;20148;-88
2022/08/23 06:52:23;;;;;;;13.23;11.60;;;;;;;;;;5025051;28;20052;-89
2022/08/23 06:54:49;;;;;;;12.43;11.18;;;;;;;;;;5028294;28;20037;-90
2022/08/23 06:57:15;;;;;;;12.35;11.15;;;;;;;;;;5031373;28;20065;-90
2022/08/23 06:59:41;;;;;;;13.43;11.63;;;;;;;;;;5032296;28;20420;-91
2022/08/23 07:02:09;;;;;;;12.48;11.15;;;;;;;;;;5011300;28;20045;-92
2022/08/23 07:04:37;;;;;;;13.40;12.00;;;;;;;;;;5032073;28;20064;-92
2022/08/23 07:07:03;;;;;;;12.98;11.57;;;;;;;;;;5016019;28;20088;-92
2022/08/23 07:09:30;;;;;;;12.57;11.27;;;;;;;;;;5040941;28;20397;-93
2022/08/23 07:11:56;;;;;;;13.02;11.73;;;;;;;;;;5011924;28;20041;-92
2022/08/23 07:14:22;;;;;;;12.38;11.07;;;;;;;;;;5021241;28;20046;-92
2022/08/23 07:16:52;;;;;;;12.93;11.73;;;;;;;;;;5014388;28;20052;-93
2022/08/23 07:19:20;;;;;;;14.10;11.25;;;;;;;;;;5011064;28;20128;-93
2022/08/23 07:21:46;;;;;;;12.43;11.07;;;;;;;;;;5032235;28;20042;-93
2022/08/23 07:24:13;;;;;;;13.70;10.50;;;;;;;;;;4999906;28;20561;-93
2022/08/23 07:26:39;;;;;;;10.90;9.75;;;;;;;;;;4995481;28;20085;-92
2022/08/23 07:29:06;;;;;;;12.73;10.90;;;;;;;;;;5020042;28;20041;-94
2022/08/23 07:31:33;;;;;;;11.00;9.88;;;;;;;;;;5026860;28;20038;-92
2022/08/23 07:34:00;;;;;;;13.00;10.23;;;;;;;;;;5012592;28;20249;-93
2022/08/23 07:36:27;;;;;;;10.88;9.80;;;;;;;;;;5030895;28;20048;-93
2022/08/23 07:38:53;;;;;;;11.27;9.85;;;;;;;;;;5010175;28;20057;-92
2022/08/23 07:41:19;;;;;;;11.98;10.48;;;;;;;;;;5028106;28;20041;-89
2022/08/23 07:43:46;;;;;;;10.90;9.90;;;;;;;;;;5029081;28;20481;-90
2022/08/23 07:46:13;;;;;;;11.60;9.88;;;;;;;;;;5011134;28;20053;-90
2022/08/23 07:48:39;;;;;;;11.05;9.82;;;;;;;;;;5032527;28;20053;-90
2022/08/23 07:51:06;;;;;;;12.25;10.15;;;;;;;;;;5013314;28;20048;-95
2022/08/23 07:53:33;;;;;;;13.50;8.85;;;;;;;;;;5022073;28;20072;-96
2022/08/23 07:55:59;;;;;;;9.93;8.93;;;;;;;;;;5013864;28;20045;-95
2022/08/23 07:58:25;;;;;;;9.15;8.25;;;;;;;;;;5028365;28;20048;-88
2022/08/23 08:00:52;;;;;;;11.48;9.32;;;;;;;;;;5028821;28;20060;-94
2022/08/23 08:03:20;;;;;;;9.98;8.98;;;;;;;;;;5037821;28;20046;-94
2022/08/23 08:05:46;;;;;;;11.45;9.38;;;;;;;;;;5001320;28;20060;-95
2022/08/23 08:08:12;;;;;;;15.13;8.88;;;;;;;;;;5036269;28;20545;-90
2022/08/23 08:10:39;;;;;;;11.73;9.95;;;;;;;;;;5015441;28;20041;-91
2022/08/23 08:13:05;;;;;;;10.52;9.43;;;;;;;;;;4996088;28;20070;-91
2022/08/23 08:15:32;;;;;;;10.45;9.45;;;;;;;;;;5015753;28;20042;-91
2022/08/23 08:17:58;;;;;;;10.70;9.63;;;;;;;;;;5010978;28;20247;-91
2022/08/23 08:20:25;;;;;;;11.43;10.32;;;;;;;;;;5004220;28;20124;-90
2022/08/23 08:22:57;;;;;;;10.57;8.90;;;;;;;;;;5007400;28;20060;-90
2022/08/23 08:25:23;;;;;;;10.45;9.35;;;;;;;;;;5021842;28;20052;-91
2022/08/23 08:27:49;;;;;;;10.63;8.98;;;;;;;;;;5000153;28;20053;-91
2022/08/23 08:30:15;;;;;;;10.07;8.90;;;;;;;;;;4999650;28;20053;-93
2022/08/23 08:32:42;;;;;;;10.25;8.57;;;;;;;;;;5007644;28;20046;-92
2022/08/23 08:35:09;;;;;;;9.93;8.93;;;;;;;;;;5035066;28;20055;-91
2022/08/23 08:37:37;;;;;;;12.07;8.85;;;;;;;;;;5015959;28;20053;-90
2022/08/23 08:40:04;;;;;;;10.95;8.43;;;;;;;;;;5029817;28;20076;-87
2022/08/23 08:42:39;;;;;;;9.57;8.68;;;;;;;;;;5026951;28;20048;-89
2022/08/23 08:45:05;;;;;;;11.30;9.60;;;;;;;;;;5029914;28;20489;-90
2022/08/23 08:47:38;;;;;;;11.45;10.23;;;;;;;;;;5004246;28;20054;-90
2022/08/23 08:50:07;;;;;;;11.90;9.65;;;;;;;;;;5010074;28;20061;-90
2022/08/23 08:52:35;;;;;;;10.68;9.57;;;;;;;;;;5016528;28;20610;-94
2022/08/23 08:55:05;;;;;;;12.38;10.38;;;;;;;;;;5019736;28;20054;-92
2022/08/23 08:57:37;;;;;;;11.45;9.73;;;;;;;;;;5027726;28;20037;-92
2022/08/23 09:00:10;;;;;;;12.90;9.30;;;;;;;;;;5240815;22;20063;-95
2022/08/23 09:02:36;;;;;;;12.30;9.43;;;;;;;;;;5037921;28;20081;-91
2022/08/23 09:05:07;;;;;;;9.75;7.60;;;;;;;;;;5038677;28;20046;-94
2022/08/23 09:07:48;;;;;;;11.15;8.43;;;;;;;;;;5023331;28;20049;-91
2022/08/23 09:10:17;;;;;;;9.13;7.47;;;;;;;;;;5034864;28;20045;-89
2022/08/23 09:12:54;;;;;;;11.60;7.88;;;;;;;;;;5030892;28;20072;-89
2022/08/23 09:15:36;;;;;;;9.82;7.93;;;;;;;;;;5021253;28;20085;-90
2022/08/23 09:18:07;;;;;;;10.00;7.43;;;;;;;;;;5034648;28;20539;-89
2022/08/23 09:20:33;;;;;;;9.93;7.70;;;;;;;;;;5018458;28;20085;-90
2022/08/23 09:23:07;;;;;;;10.43;8.25;;;;;;;;;;5016331;28;20473;-91
2022/08/23 09:25:33;;;;;;;9.70;8.70;;;;;;;;;;5014151;28;20110;-88
2022/08/23 09:27:59;;;;;;;10.77;8.82;;;;;;;;;;5030334;28;20068;-89
2022/08/23 09:30:45;;;;;;;9.32;8.43;;;;;;;;;;5017059;28;20080;-89
2022/08/23 09:33:19;;;;;;;11.82;8.80;;;;;;;;;;5023495;28;20418;-94
2022/08/23 09:36:01;;;;;;;9.70;8.70;;;;;;;;;;5058639;28;20081;-90
2022/08/23 09:38:28;;;;;;;11.50;8.93;;;;;;;;;;5039863;28;20037;-90
2022/08/23 09:40:54;;;;;;;10.05;8.57;;;;;;;;;;5024581;28;20313;-88
2022/08/23 09:43:26;;;;;;;10.90;9.73;;;;;;;;;;5033377;28;20107;-88
2022/08/23 09:45:54;;;;;;;11.38;9.88;;;;;;;;;;5032154;28;20052;-88
2022/08/23 09:48:35;;;;;;;11.75;9.98;;;;;;;;;;5050403;28;20389;-91
2022/08/23 09:51:16;;;;;;;12.10;10.73;;;;;;;;;;5035475;28;20397;-90
2022/08/23 09:53:49;;;;;;;12.40;11.02;;;;;;;;;;5012961;28;20054;-88
2022/08/23 09:56:18;;;;;;;12.53;10.67;;;;;;;;;;5016530;28;20049;-89
2022/08/23 09:58:49;;;;;;;12.52;10.45;;;;;;;;;;5015823;28;20307;-89
2022/08/23 10:01:18;;;;;;;12.57;11.25;;;;;;;;;;5016639;28;20049;-88
2022/08/23 10:03:45;;;;;;;12.48;11.25;;;;;;;;;;5035340;28;20079;-89
2022/08/23 10:06:14;;;;;;;11.68;10.45;;;;;;;;;;5033744;28;20051;-86
2022/08/23 10:08:52;;;;;;;12.10;10.90;;;;;;;;;;5015981;28;20046;-89
2022/08/23 10:11:26;;;;;;;12.45;9.98;;;;;;;;;;5033149;28;20046;-90
2022/08/23 10:13:52;;;;;;;12.10;9.50;;;;;;;;;;5025553;28;20508;-87
2022/08/23 10:16:25;;;;;;;12.45;10.80;;;;;;;;;;5013519;28;20087;-89
2022/08/23 10:19:07;;;;;;;13.10;10.32;;;;;;;;;;5016096;28;20049;-86
2022/08/23 10:21:39;;;;;;;12.43;10.48;;;;;;;;;;5014925;28;20037;-89
2022/08/23 10:24:19;;;;;;;11.77;10.50;;;;;;;;;;5007635;28;20049;-87
2022/08/23 10:29:36;;;;;;;11.88;10.57;;;;;;;;;;5032118;28;20453;-87
2022/08/23 10:29:52;;;;;;;15.00;11.07;;;;;;;;;;5025841;28;20096;-86
2022/08/23 10:32:18;;;;;;;12.75;10.00;;;;;;;;;;5026100;28;20486;-86
2022/08/23 10:34:47;;;;;;;12.75;11.45;;;;;;;;;;5031616;28;20136;-86
2022/08/23 10:37:13;;;;;;;11.15;10.05;;;;;;;;;;5019265;28;20042;-85
2022/08/23 10:39:45;;;;;;;12.82;10.10;;;;;;;;;;5015637;28;20390;-88
2022/08/23 10:42:17;;;;;;;11.10;9.20;;;;;;;;;;5008555;28;20045;-88
2022/08/23 10:44:43;;;;;;;11.27;10.13;;;;;;;;;;5009411;28;20042;-89
2022/08/23 10:47:33;;;;;;;10.52;9.27;;;;;;;;;;5006858;28;20089;-89
2022/08/23 10:50:03;;;;;;;10.40;8.98;;;;;;;;;;5008386;28;20053;-90
2022/08/23 10:52:32;;;;;;;11.23;9.05;;;;;;;;;;5032109;28;20299;-90
2022/08/23 10:55:15;;;;;;;10.07;9.00;;;;;;;;;;5002517;28;20110;-89
2022/08/23 10:57:42;;;;;;;15.13;10.30;;;;;;;;;;5025750;28;20075;-88
2022/08/23 11:00:09;;;;;;;15.20;10.00;;;;;;;;;;5011720;28;20068;-88
2022/08/23 11:02:59;;;;;;;11.73;9.45;;;;;;;;;;5008978;28;20505;-88
2022/08/23 11:05:27;;;;;;;12.30;9.60;;;;;;;;;;4989769;28;20523;-86
2022/08/23 11:07:57;;;;;;;14.95;10.75;;;;;;;;;;5026194;28;20065;-89
2022/08/23 11:10:44;;;;;;;10.73;8.90;;;;;;;;;;5027200;28;20046;-90
2022/08/23 11:13:10;;;;;;;13.07;10.52;;;;;;;;;;5017343;28;20045;-87
2022/08/23 11:15:40;;;;;;;13.75;9.52;;;;;;;;;;5014304;28;20052;-90
2022/08/23 11:18:07;;;;;;;11.45;9.73;;;;;;;;;;5010029;28;20118;-91
2022/08/23 11:20:48;;;;;;;12.93;11.38;;;;;;;;;;5031827;28;20064;-90
2022/08/23 11:23:30;;;;;;;13.48;10.43;;;;;;;;;;5014662;28;20105;-90
2022/08/23 11:25:56;;;;;;;13.07;10.02;;;;;;;;;;5034547;28;20041;-92
2022/08/23 11:28:25;;;;;;;12.32;10.90;;;;;;;;;;5003424;28;20046;-91
2022/08/23 11:31:00;;;;;;;14.60;10.63;;;;;;;;;;5030490;28;20041;-91
2022/08/23 11:33:32;;;;;;;11.88;9.95;;;;;;;;;;5006671;28;20045;-89
2022/08/23 11:36:07;;;;;;;11.23;9.90;;;;;;;;;;5007633;28;20049;-91
2022/08/23 11:38:43;;;;;;;13.35;9.88;;;;;;;;;;5023902;28;20460;-90
2022/08/23 11:41:18;;;;;;;12.40;10.07;;;;;;;;;;5034678;28;20037;-88
2022/08/23 11:43:45;;;;;;;10.23;9.20;;;;;;;;;;5003698;28;20132;-91
2022/08/23 11:46:27;;;;;;;11.10;9.55;;;;;;;;;;5024393;28;20041;-88
2022/08/23 11:49:11;;;;;;;11.35;9.98;;;;;;;;;;5029924;28;20049;-88
2022/08/23 11:51:56;;;;;;;11.32;8.35;;;;;;;;;;5026762;28;20129;-89
2022/08/23 11:54:22;;;;;;;15.18;11.23;;;;;;;;;;5002031;28;20045;-87
2022/08/23 11:56:54;;;;;;;11.25;10.05;;;;;;;;;;5019021;28;20373;-91
2022/08/23 11:59:21;;;;;;;15.05;10.88;;;;;;;;;;5032360;28;20065;-89
2022/08/23 12:01:47;;;;;;;9.85;7.97;;;;;;;;;;5031292;28;20297;-91
2022/08/23 12:04:31;;;;;;;12.40;10.95;;;;;;;;;;5018707;28;20480;-91
2022/08/23 12:07:02;;;;;;;13.23;11.10;;;;;;;;;;5014881;28;20048;-91
2022/08/23 12:09:28;;;;;;;10.40;9.27;;;;;;;;;;5017177;28;20081;-88
2022/08/23 12:11:54;;;;;;;13.43;11.10;;;;;;;;;;5015882;28;20042;-89
2022/08/23 12:14:35;;;;;;;14.88;11.65;;;;;;;;;;4999025;28;20563;-88
2022/08/23 12:17:25;;;;;;;11.77;10.68;;;;;;;;;;5031899;28;20049;-90
2022/08/23 12:19:58;;;;;;;12.70;9.80;;;;;;;;;;4988546;28;20523;-91
2022/08/23 12:22:29;;;;;;;10.75;9.65;;;;;;;;;;5015651;28;20405;-83
2022/08/23 12:24:58;;;;;;;12.88;8.50;;;;;;;;;;5008547;28;20049;-82
2022/08/23 12:27:24;;;;;;;13.02;9.68;;;;;;;;;;5036146;28;20413;-82
2022/08/23 12:30:09;;;;;;;13.18;10.60;;;;;;;;;;5028554;28;20057;-81
2022/08/23 12:32:47;;;;;;;11.85;10.43;;;;;;;;;;4997572;28;20184;-82
2022/08/23 12:35:29;;;;;;;11.30;9.55;;;;;;;;;;5003249;28;20092;-82
2022/08/23 12:38:03;;;;;;;8.93;7.72;;;;;;;;;;5034921;28;20429;-82
2022/08/23 12:40:34;;;;;;;8.77;7.22;;;;;;;;;;5034706;28;20120;-82
2022/08/23 12:43:05;;;;;;;11.07;7.22;;;;;;;;;;5018473;28;20074;-82
2022/08/23 12:45:37;;;;;;;9.75;7.32;;;;;;;;;;5014894;28;20139;-82
2022/08/23 12:48:06;;;;;;;9.55;6.07;;;;;;;;;;5007503;28;20042;-82
2022/08/23 12:50:34;;;;;;;10.27;7.53;;;;;;;;;;5017078;28;20045;-82
2022/08/23 12:53:01;;;;;;;13.40;10.18;;;;;;;;;;5016051;28;20443;-83
2022/08/23 12:55:36;;;;;;;12.10;8.80;;;;;;;;;;5033307;28;20296;-83
2022/08/23 12:58:03;;;;;;;11.80;9.02;;;;;;;;;;5007459;28;20095;-82
2022/08/23 13:00:31;;;;;;;11.52;9.10;;;;;;;;;;5031158;28;20176;-82
2022/08/23 13:03:11;;;;;;;10.93;8.45;;;;;;;;;;5015487;28;20164;-82
2022/08/23 13:05:37;;;;;;;8.63;6.78;;;;;;;;;;5032007;28;20113;-82
2022/08/23 13:08:04;;;;;;;7.18;6.10;;;;;;;;;;5028726;28;20041;-82
2022/08/23 13:10:31;;;;;;;10.82;6.40;;;;;;;;;;5021870;28;20079;-82
2022/08/23 13:12:57;;;;;;;9.07;5.82;;;;;;;;;;5002309;28;20054;-84
2022/08/23 13:15:47;;;;;;;6.95;5.63;;;;;;;;;;5007106;28;20176;-81
2022/08/23 13:18:23;;;;;;;9.98;5.72;;;;;;;;;;5008140;28;20104;-82
2022/08/23 13:20:49;;;;;;;6.03;4.55;;;;;;;;;;5028578;28;20498;-82
2022/08/23 13:23:27;;;;;;;6.75;5.05;;;;;;;;;;5012773;28;20042;-81
2022/08/23 13:25:53;;;;;;;4.88;3.80;;;;;;;;;;5032582;28;20049;-82
2022/08/23 13:28:25;;;;;;;6.97;3.53;;;;;;;;;;5015466;28;20041;-80
2022/08/23 13:30:51;;;;;;;;;;;;;;;;;;5006237;28;20111;-82
2022/08/23 13:33:18;;;;;;;9.10;5.28;;;;;;;;;;5008418;28;19926;-83
2022/08/23 13:35:48;;;;;;;8.60;6.55;;;;;;;;;;5030553;28;20076;-82
2022/08/23 13:38:15;;;;;;;7.95;6.47;;;;;;;;;;5008426;28;20100;-82
2022/08/23 13:40:50;;;;;;;8.25;5.78;;;;;;;;;;4999515;28;20042;-82
2022/08/23 13:43:21;;;;;;;5.93;4.97;;;;;;;;;;5014912;28;20445;-85
2022/08/23 13:45:48;;;;;;;8.30;4.47;;;;;;;;;;5019855;28;20033;-84
2022/08/23 13:48:26;;;;;;;5.03;4.05;;;;;;;;;;5013649;28;20056;-82
2022/08/23 13:50:52;;;;;;;6.28;4.22;;;;;;;;;;5014849;28;20489;-79
2022/08/23 13:53:18;;;;;;;7.95;4.13;;;;;;;;;;5008618;28;20045;-78
2022/08/23 13:55:50;;;;;;;8.30;3.95;;;;;;;;;;5028172;28;20053;-79
2022/08/23 13:58:33;;;;;;;4.80;3.40;;;;;;;;;;5013409;28;20443;-82
2022/08/23 14:01:00;;;;;;;3.80;3.40;;;;;;;;;;5009598;28;20061;-80
2022/08/23 14:03:26;;;;;;;4.75;3.58;;;;;;;;;;5031470;28;20049;-80
2022/08/23 14:05:52;;;;;;;3.75;3.20;;;;;;;;;;5013706;28;20056;-79
2022/08/23 14:08:18;;;;;;;4.88;3.10;;;;;;;;;;5014738;28;20056;-79
2022/08/23 14:10:45;;;;;;;4.03;2.70;;;;;;;;;;5003017;28;20045;-82
2022/08/23 14:13:11;;;;;;;3.60;2.67;;;;;;;;;;5028765;28;20037;-82
2022/08/23 14:15:40;;;;;;;3.80;2.90;;;;;;;;;;5006576;28;20072;-84
2022/08/23 14:18:06;;;;;;;3.90;3.03;;;;;;;;;;5010883;28;20041;-85
2022/08/23 14:20:32;;;;;;;5.38;2.10;;;;;;;;;;5024149;28;20385;-84
2022/08/23 14:22:58;;;;;;;4.15;2.50;;;;;;;;;;5027857;28;20065;-85
2022/08/23 14:25:24;;;;;;;2.97;2.03;;;;;;;;;;5033842;28;20041;-84
2022/08/23 14:27:50;;;;;;;4.80;2.40;;;;;;;;;;5024317;28;20042;-86
2022/08/23 14:30:25;;;;;;;3.42;2.47;;;;;;;;;;5013197;28;20108;-88
2022/08/23 14:32:51;;;;;;;4.35;3.15;;;;;;;;;;5010497;28;20049;-91
2022/08/23 14:35:17;;;;;;;5.38;2.20;;;;;;;;;;5021659;28;20549;-90
2022/08/23 14:37:43;;;;;;;3.88;2.80;;;;;;;;;;5009135;28;20043;-90
2022/08/23 14:40:09;;;;;;;5.47;2.40;;;;;;;;;;5035615;28;20038;-90
2022/08/23 14:42:35;;;;;;;4.10;2.35;;;;;;;;;;5014878;28;20457;-90
2022/08/23 14:45:01;;;;;;;3.20;2.63;;;;;;;;;;4995980;28;20437;-91
2022/08/23 14:47:28;;;;;;;2.85;1.90;;;;;;;;;;5001713;28;20055;-86
2022/08/23 14:49:54;;;;;;;3.72;2.30;;;;;;;;;;5006835;28;20095;-86
2022/08/23 14:52:20;;;;;;;3.78;2.00;;;;;;;;;;5028776;28;20481;-86